createdAt,value
2022-12-02T00:00:30.466Z,0.54
2022-12-02T00:02:58.677Z,0.53
2022-12-02T00:05:37.158Z,0.53
2022-12-02T00:08:23.392Z,0.55
2022-12-02T00:11:02.337Z,0.50
2022-12-02T00:13:44.950Z,0.55
2022-12-02T00:16:26.366Z,0.50
2022-12-02T00:19:05.975Z,0.50
2022-12-02T00:21:32.617Z,0.53
2022-12-02T00:23:59.271Z,0.54
2022-12-02T00:26:25.845Z,0.55
2022-12-02T00:28:58.123Z,0.55
2022-12-02T00:31:27.757Z,0.49
2022-12-02T00:33:56.752Z,0.49
2022-12-02T00:36:23.748Z,0.54
2022-12-02T00:38:51.797Z,0.52
2022-12-02T00:41:18.453Z,0.54
2022-12-02T00:44:03.694Z,0.55
2022-12-02T00:46:35.674Z,0.50
2022-12-02T00:49:16.936Z,0.55
2022-12-02T00:51:45.704Z,0.59
2022-12-02T00:54:14.499Z,0.59
2022-12-02T00:56:42.314Z,0.61
2022-12-02T00:59:08.931Z,0.61
2022-12-02T01:01:36.512Z,0.62
2022-12-02T01:04:04.130Z,0.65
2022-12-02T01:06:31.285Z,0.68
2022-12-02T01:08:57.966Z,0.69
2022-12-02T01:11:24.602Z,0.70
2022-12-02T01:13:51.802Z,0.75
2022-12-02T01:16:18.595Z,0.75
2022-12-02T01:18:45.424Z,0.79
2022-12-02T01:21:15.152Z,0.80
2022-12-02T01:23:41.860Z,0.81
2022-12-02T01:26:08.546Z,0.80
2022-12-02T01:28:35.409Z,0.83
2022-12-02T01:31:02.087Z,0.81
2022-12-02T01:33:28.847Z,0.85
2022-12-02T01:35:55.723Z,0.88
2022-12-02T01:38:22.596Z,0.89
2022-12-02T01:40:49.604Z,0.89
2022-12-02T01:43:16.688Z,0.83
2022-12-02T01:45:44.114Z,0.89
2022-12-02T01:48:11.703Z,0.90
2022-12-02T01:50:41.297Z,0.90
2022-12-02T01:53:14.781Z,0.91
2022-12-02T01:55:42.217Z,0.88
2022-12-02T01:58:13.520Z,0.88
2022-12-02T02:00:43.686Z,0.87
2022-12-02T02:03:10.574Z,0.91
2022-12-02T02:05:37.872Z,0.92
2022-12-02T02:08:17.960Z,0.91
2022-12-02T02:10:47.843Z,0.89
2022-12-02T02:13:17.566Z,0.91
2022-12-02T02:15:46.394Z,0.86
2022-12-02T02:18:15.815Z,0.86
2022-12-02T02:20:42.984Z,0.86
2022-12-02T02:23:11.619Z,0.90
2022-12-02T02:25:48.544Z,0.87
2022-12-02T02:28:16.002Z,0.87
2022-12-02T02:30:43.516Z,0.86
2022-12-02T02:33:15.219Z,0.83
2022-12-02T02:35:46.385Z,0.88
2022-12-02T02:38:20.825Z,0.86
2022-12-02T02:40:48.339Z,0.85
2022-12-02T02:43:20.337Z,0.89
2022-12-02T02:45:48.533Z,0.82
2022-12-02T02:48:18.672Z,0.88
2022-12-02T02:50:50.587Z,0.89
2022-12-02T02:53:29.453Z,0.86
2022-12-02T02:55:57.065Z,0.90
2022-12-02T02:58:26.708Z,0.87
2022-12-02T03:01:28.033Z,0.86
2022-12-02T03:04:10.778Z,0.86
2022-12-02T03:06:41.945Z,0.89
2022-12-02T03:09:16.739Z,0.87
2022-12-02T03:11:49.755Z,0.89
2022-12-02T03:14:19.247Z,0.85
2022-12-02T03:16:48.753Z,0.85
2022-12-02T03:19:16.900Z,0.82
2022-12-02T03:21:44.768Z,0.76
2022-12-02T03:24:15.086Z,0.71
2022-12-02T03:26:43.423Z,0.67
2022-12-02T03:29:15.523Z,0.60
2022-12-02T03:31:44.193Z,0.58
2022-12-02T03:34:14.941Z,0.57
2022-12-02T03:36:44.154Z,0.50
2022-12-02T03:39:26.828Z,0.38
2022-12-02T03:41:57.215Z,0.38
2022-12-02T03:44:24.442Z,0.31
2022-12-02T03:46:54.849Z,0.29
2022-12-02T03:49:25.034Z,0.25
2022-12-02T03:51:58.661Z,0.25
2022-12-02T03:54:41.844Z,0.23
2022-12-02T03:59:02.994Z,0.16
2022-12-02T04:05:32.482Z,0.08
2022-12-02T04:08:07.276Z,0.14
2022-12-02T04:10:34.880Z,0.09
2022-12-02T04:13:19.628Z,0.08
2022-12-02T04:15:57.326Z,0.04
2022-12-02T04:18:36.807Z,0.04
2022-12-02T04:21:12.963Z,0.04
2022-12-02T04:24:02.619Z,0.04
2022-12-02T04:26:42.009Z,0.07
2022-12-02T04:29:20.483Z,0.07
2022-12-02T04:31:47.717Z,0.06
2022-12-02T04:34:17.485Z,0.10
2022-12-02T04:37:03.527Z,0.10
2022-12-02T04:39:32.863Z,0.09
2022-12-02T04:42:03.624Z,0.15
2022-12-02T04:44:37.341Z,0.15
2022-12-02T04:47:07.037Z,0.12
2022-12-02T04:49:34.271Z,0.17
2022-12-02T04:52:01.392Z,0.20
2022-12-02T04:54:28.467Z,0.22
2022-12-02T04:57:01.317Z,0.20
2022-12-02T04:59:28.319Z,0.22
2022-12-02T05:01:55.203Z,0.20
2022-12-02T05:04:36.694Z,0.20
2022-12-02T05:07:08.904Z,0.23
2022-12-02T05:09:36.105Z,0.27
2022-12-02T05:12:03.617Z,0.25
2022-12-02T05:14:30.681Z,0.20
2022-12-02T05:17:00.153Z,0.23
2022-12-02T05:19:27.273Z,0.22
2022-12-02T05:21:54.308Z,0.25
2022-12-02T05:24:21.476Z,0.26
2022-12-02T05:26:48.811Z,0.20
2022-12-02T05:29:19.083Z,0.22
2022-12-02T05:31:46.428Z,0.17
2022-12-02T05:34:13.400Z,0.18
2022-12-02T05:36:42.686Z,0.20
2022-12-02T05:39:16.791Z,0.17
2022-12-02T05:41:45.733Z,0.21
2022-12-02T05:44:35.085Z,0.23
2022-12-02T05:47:19.568Z,0.22
2022-12-02T05:49:47.431Z,0.22
2022-12-02T05:52:29.594Z,0.25
2022-12-02T05:55:07.994Z,0.20
2022-12-02T05:57:38.026Z,0.18
2022-12-02T06:00:20.121Z,0.20
2022-12-02T06:03:00.088Z,0.16
2022-12-02T06:05:36.052Z,0.15
2022-12-02T06:08:50.424Z,0.15
2022-12-02T06:11:50.530Z,0.16
2022-12-02T06:14:45.357Z,0.15
2022-12-02T06:17:36.839Z,0.19
2022-12-02T06:20:36.089Z,0.17
2022-12-02T06:23:04.268Z,0.13
2022-12-02T06:26:44.063Z,0.12
2022-12-02T06:28:53.312Z,0.15
2022-12-02T06:40:36.771Z,0.21
2022-12-02T06:43:29.536Z,0.22
2022-12-02T06:46:00.047Z,0.25
2022-12-02T07:02:33.213Z,0.30
2022-12-02T07:05:00.603Z,0.35
2022-12-02T07:07:32.384Z,0.40
2022-12-02T07:10:15.702Z,0.41
2022-12-02T08:04:51.873Z,0.96
2022-12-02T08:07:19.139Z,0.98
2022-12-02T08:09:46.143Z,1.08
2022-12-02T08:12:13.062Z,1.10
2022-12-02T08:14:39.962Z,1.12
2022-12-02T08:17:09.286Z,1.14
2022-12-02T08:57:16.271Z,1.40
2022-12-02T08:59:43.122Z,1.43
2022-12-02T09:02:10.108Z,1.45
2022-12-02T09:04:36.895Z,1.47
2022-12-02T09:07:03.838Z,1.48
2022-12-02T09:09:30.681Z,1.46
2022-12-02T09:11:57.434Z,1.53
2022-12-02T09:14:24.260Z,1.55
2022-12-02T09:46:28.310Z,1.77
2022-12-02T09:48:59.008Z,1.82
2022-12-02T09:51:28.638Z,1.77
2022-12-02T09:54:00.366Z,1.77
2022-12-02T09:56:27.886Z,1.79
2022-12-02T09:58:57.413Z,1.79
2022-12-02T10:01:29.501Z,1.79
2022-12-02T10:03:56.566Z,1.81
2022-12-02T10:06:29.342Z,1.85
2022-12-02T10:08:58.449Z,1.91
2022-12-02T10:11:33.159Z,1.92
2022-12-02T10:14:02.272Z,1.95
2022-12-02T10:16:29.720Z,1.96
2022-12-02T10:19:15.864Z,2.00
2022-12-02T10:21:44.522Z,2.02
2022-12-02T10:24:14.780Z,2.11
2022-12-02T10:26:53.149Z,2.12
2022-12-02T10:29:31.710Z,2.12
2022-12-02T10:32:07.883Z,2.24
2022-12-02T10:34:36.363Z,2.22
2022-12-02T10:37:26.626Z,2.22
2022-12-02T10:40:28.319Z,2.25
2022-12-02T10:43:17.761Z,2.28
2022-12-02T10:46:00.080Z,2.22
2022-12-02T10:48:26.836Z,2.27
2022-12-02T10:50:53.556Z,2.32
2022-12-02T10:53:29.380Z,2.35
2022-12-02T10:55:58.518Z,2.42
2022-12-02T10:58:30.867Z,2.46
2022-12-02T11:01:01.428Z,2.49
2022-12-02T11:03:31.731Z,2.42
2022-12-02T11:06:02.817Z,2.43
2022-12-02T11:08:30.170Z,2.43
2022-12-02T11:11:37.153Z,2.54
2022-12-02T11:14:12.861Z,2.48
2022-12-02T11:16:53.903Z,2.45
2022-12-02T11:19:33.425Z,2.39
2022-12-02T11:22:01.036Z,2.35
2022-12-02T11:24:30.283Z,2.28
2022-12-02T11:26:59.997Z,2.24
2022-12-02T11:30:09.568Z,2.22
2022-12-02T11:32:36.243Z,2.18
2022-12-02T11:35:39.135Z,2.22
2022-12-02T11:38:25.432Z,2.23
2022-12-02T11:40:52.063Z,2.31
2022-12-02T11:43:46.981Z,2.27
2022-12-02T11:46:17.689Z,2.21
2022-12-02T11:48:59.472Z,2.18
2022-12-02T11:51:41.551Z,2.23
2022-12-02T11:54:18.164Z,2.30
2022-12-02T11:56:47.012Z,2.37
2022-12-02T11:59:34.374Z,2.41
2022-12-02T12:02:19.383Z,2.48
2022-12-02T12:05:04.796Z,2.52
2022-12-02T12:08:02.713Z,2.63
2022-12-02T12:10:40.698Z,2.69
2022-12-02T12:13:35.682Z,2.77
2022-12-02T12:16:04.260Z,2.85
2022-12-02T12:18:52.270Z,2.94
2022-12-02T12:21:31.496Z,2.98
2022-12-02T12:24:25.502Z,2.95
2022-12-02T12:27:12.100Z,2.89
2022-12-02T12:29:41.579Z,2.84
2022-12-02T12:32:11.127Z,2.85
2022-12-02T12:34:38.068Z,2.77
2022-12-02T12:37:08.318Z,2.76
2022-12-02T12:39:35.129Z,2.78
2022-12-02T12:42:02.466Z,2.81
2022-12-02T12:44:32.572Z,2.79
2022-12-02T16:25:36.740Z,3.33
2022-12-02T16:28:03.936Z,3.34
2022-12-02T16:30:36.751Z,3.45
2022-12-02T16:33:03.791Z,3.40
2022-12-02T16:35:30.557Z,3.39
2022-12-02T16:38:02.858Z,3.48
2022-12-02T16:40:31.094Z,3.47
2022-12-02T16:42:57.819Z,3.49
2022-12-02T16:45:24.620Z,3.45
2022-12-02T20:20:16.424Z,3.92
2022-12-02T20:22:43.359Z,3.89
2022-12-02T20:54:54.332Z,3.64
2022-12-02T21:19:26.901Z,3.73
2022-12-02T21:24:41.954Z,3.73
2022-12-02T22:05:06.909Z,3.79
2022-12-02T22:56:18.987Z,3.62
2022-12-02T23:55:24.759Z,3.42
2022-12-02T23:57:51.687Z,3.36
